sensor_id;sensor_type;location;lat;lon;timestamp;P1;durP1;ratioP1;P2;durP2;ratioP2
40669;SDS011;26355;45.528;9.234;2023-05-29T00:00:16;11.25;;;3.60;;
40669;SDS011;26355;45.528;9.234;2023-05-29T00:02:42;11.80;;;4.05;;
40669;SDS011;26355;45.528;9.234;2023-05-29T00:05:09;11.33;;;3.73;;
40669;SDS011;26355;45.528;9.234;2023-05-29T00:07:36;14.55;;;4.18;;
40669;SDS011;26355;45.528;9.234;2023-05-29T00:10:03;10.70;;;3.72;;
40669;SDS011;26355;45.528;9.234;2023-05-29T00:12:29;12.77;;;3.85;;
40669;SDS011;26355;45.528;9.234;2023-05-29T00:14:54;11.27;;;3.65;;
40669;SDS011;26355;45.528;9.234;2023-05-29T00:17:20;12.18;;;3.85;;
40669;SDS011;26355;45.528;9.234;2023-05-29T00:19:46;13.65;;;4.32;;
40669;SDS011;26355;45.528;9.234;2023-05-29T00:22:12;13.02;;;4.20;;
40669;SDS011;26355;45.528;9.234;2023-05-29T00:24:37;12.13;;;3.90;;
40669;SDS011;26355;45.528;9.234;2023-05-29T00:27:03;13.35;;;4.15;;
40669;SDS011;26355;45.528;9.234;2023-05-29T00:29:29;11.68;;;3.95;;
40669;SDS011;26355;45.528;9.234;2023-05-29T00:31:55;12.20;;;4.17;;
40669;SDS011;26355;45.528;9.234;2023-05-29T00:34:22;12.15;;;4.10;;
40669;SDS011;26355;45.528;9.234;2023-05-29T00:36:48;14.52;;;4.15;;
40669;SDS011;26355;45.528;9.234;2023-05-29T00:39:14;12.40;;;4.15;;
40669;SDS011;26355;45.528;9.234;2023-05-29T00:41:40;12.43;;;4.20;;
40669;SDS011;26355;45.528;9.234;2023-05-29T00:44:05;14.35;;;4.97;;
40669;SDS011;26355;45.528;9.234;2023-05-29T00:46:31;12.77;;;4.60;;
40669;SDS011;26355;45.528;9.234;2023-05-29T00:49:00;14.77;;;4.72;;
40669;SDS011;26355;45.528;9.234;2023-05-29T00:51:27;13.75;;;4.93;;
40669;SDS011;26355;45.528;9.234;2023-05-29T00:53:54;14.13;;;4.80;;
40669;SDS011;26355;45.528;9.234;2023-05-29T00:56:20;15.52;;;5.05;;
40669;SDS011;26355;45.528;9.234;2023-05-29T00:58:47;14.90;;;5.80;;
40669;SDS011;26355;45.528;9.234;2023-05-29T01:01:14;12.27;;;4.80;;
40669;SDS011;26355;45.528;9.234;2023-05-29T01:03:43;14.27;;;5.35;;
40669;SDS011;26355;45.528;9.234;2023-05-29T01:06:10;15.10;;;5.53;;
40669;SDS011;26355;45.528;9.234;2023-05-29T01:08:36;14.15;;;5.38;;
40669;SDS011;26355;45.528;9.234;2023-05-29T01:11:05;14.80;;;5.63;;
40669;SDS011;26355;45.528;9.234;2023-05-29T01:13:46;16.13;;;5.88;;
40669;SDS011;26355;45.528;9.234;2023-05-29T01:16:17;13.82;;;5.63;;
40669;SDS011;26355;45.528;9.234;2023-05-29T01:18:55;15.18;;;5.70;;
40669;SDS011;26355;45.528;9.234;2023-05-29T01:27:01;14.35;;;5.35;;
40669;SDS011;26355;45.528;9.234;2023-05-29T01:29:30;14.55;;;5.53;;
40669;SDS011;26355;45.528;9.234;2023-05-29T01:31:59;14.77;;;5.50;;
40669;SDS011;26355;45.528;9.234;2023-05-29T01:34:26;15.40;;;5.97;;
40669;SDS011;26355;45.528;9.234;2023-05-29T01:36:52;16.13;;;5.75;;
40669;SDS011;26355;45.528;9.234;2023-05-29T01:39:18;15.50;;;5.72;;
40669;SDS011;26355;45.528;9.234;2023-05-29T01:41:44;14.23;;;5.70;;
40669;SDS011;26355;45.528;9.234;2023-05-29T01:44:11;14.35;;;5.30;;
40669;SDS011;26355;45.528;9.234;2023-05-29T01:46:38;15.55;;;5.97;;
40669;SDS011;26355;45.528;9.234;2023-05-29T01:49:08;15.13;;;5.80;;
40669;SDS011;26355;45.528;9.234;2023-05-29T01:51:36;16.20;;;5.72;;
40669;SDS011;26355;45.528;9.234;2023-05-29T01:54:02;14.85;;;6.00;;
40669;SDS011;26355;45.528;9.234;2023-05-29T01:56:28;16.02;;;5.88;;
40669;SDS011;26355;45.528;9.234;2023-05-29T01:58:54;14.35;;;5.47;;
40669;SDS011;26355;45.528;9.234;2023-05-29T02:01:21;15.95;;;6.00;;
40669;SDS011;26355;45.528;9.234;2023-05-29T02:03:48;15.65;;;6.10;;
40669;SDS011;26355;45.528;9.234;2023-05-29T02:06:13;14.63;;;5.85;;
40669;SDS011;26355;45.528;9.234;2023-05-29T02:08:40;15.25;;;5.80;;
40669;SDS011;26355;45.528;9.234;2023-05-29T02:11:05;15.52;;;5.88;;
40669;SDS011;26355;45.528;9.234;2023-05-29T02:13:31;16.75;;;6.07;;
40669;SDS011;26355;45.528;9.234;2023-05-29T02:15:57;16.13;;;6.18;;
40669;SDS011;26355;45.528;9.234;2023-05-29T02:18:22;15.25;;;6.18;;
40669;SDS011;26355;45.528;9.234;2023-05-29T02:20:48;15.82;;;6.13;;
40669;SDS011;26355;45.528;9.234;2023-05-29T02:23:14;15.73;;;6.25;;
40669;SDS011;26355;45.528;9.234;2023-05-29T02:25:40;15.82;;;6.20;;
40669;SDS011;26355;45.528;9.234;2023-05-29T02:28:06;14.80;;;5.80;;
40669;SDS011;26355;45.528;9.234;2023-05-29T02:30:32;15.88;;;6.10;;
40669;SDS011;26355;45.528;9.234;2023-05-29T02:32:58;15.07;;;6.53;;
40669;SDS011;26355;45.528;9.234;2023-05-29T02:35:23;16.20;;;6.35;;
40669;SDS011;26355;45.528;9.234;2023-05-29T02:37:49;15.70;;;6.85;;
40669;SDS011;26355;45.528;9.234;2023-05-29T02:40:15;15.55;;;6.22;;
40669;SDS011;26355;45.528;9.234;2023-05-29T02:42:42;15.47;;;5.70;;
40669;SDS011;26355;45.528;9.234;2023-05-29T02:45:08;14.63;;;5.93;;
40669;SDS011;26355;45.528;9.234;2023-05-29T02:47:34;14.52;;;5.90;;
40669;SDS011;26355;45.528;9.234;2023-05-29T02:50:00;15.33;;;6.07;;
40669;SDS011;26355;45.528;9.234;2023-05-29T02:52:26;17.45;;;6.20;;
40669;SDS011;26355;45.528;9.234;2023-05-29T02:54:52;15.48;;;6.47;;
40669;SDS011;26355;45.528;9.234;2023-05-29T02:57:19;14.52;;;5.70;;
40669;SDS011;26355;45.528;9.234;2023-05-29T02:59:45;20.70;;;6.38;;
40669;SDS011;26355;45.528;9.234;2023-05-29T03:02:11;16.20;;;6.18;;
40669;SDS011;26355;45.528;9.234;2023-05-29T03:04:36;14.85;;;5.95;;
40669;SDS011;26355;45.528;9.234;2023-05-29T03:07:02;14.43;;;6.07;;
40669;SDS011;26355;45.528;9.234;2023-05-29T03:09:28;15.60;;;6.00;;
40669;SDS011;26355;45.528;9.234;2023-05-29T03:11:53;15.40;;;6.35;;
40669;SDS011;26355;45.528;9.234;2023-05-29T03:14:19;15.30;;;6.10;;
40669;SDS011;26355;45.528;9.234;2023-05-29T03:16:46;16.27;;;6.00;;
40669;SDS011;26355;45.528;9.234;2023-05-29T03:19:12;15.07;;;6.20;;
40669;SDS011;26355;45.528;9.234;2023-05-29T03:21:38;16.48;;;5.68;;
40669;SDS011;26355;45.528;9.234;2023-05-29T03:24:04;15.32;;;5.53;;
40669;SDS011;26355;45.528;9.234;2023-05-29T03:26:30;15.93;;;5.60;;
40669;SDS011;26355;45.528;9.234;2023-05-29T03:28:56;15.57;;;5.88;;
40669;SDS011;26355;45.528;9.234;2023-05-29T03:31:21;15.18;;;5.68;;
40669;SDS011;26355;45.528;9.234;2023-05-29T03:33:47;14.90;;;5.57;;
40669;SDS011;26355;45.528;9.234;2023-05-29T03:36:14;15.68;;;5.80;;
40669;SDS011;26355;45.528;9.234;2023-05-29T03:38:42;16.42;;;6.03;;
40669;SDS011;26355;45.528;9.234;2023-05-29T03:41:08;16.88;;;6.30;;
40669;SDS011;26355;45.528;9.234;2023-05-29T03:43:33;17.65;;;5.85;;
40669;SDS011;26355;45.528;9.234;2023-05-29T03:45:59;15.40;;;5.68;;
40669;SDS011;26355;45.528;9.234;2023-05-29T03:48:25;15.90;;;6.10;;
40669;SDS011;26355;45.528;9.234;2023-05-29T03:50:50;14.88;;;6.00;;
40669;SDS011;26355;45.528;9.234;2023-05-29T03:53:16;15.65;;;6.30;;
40669;SDS011;26355;45.528;9.234;2023-05-29T03:55:41;15.30;;;6.07;;
40669;SDS011;26355;45.528;9.234;2023-05-29T03:58:07;16.92;;;6.50;;
40669;SDS011;26355;45.528;9.234;2023-05-29T04:00:32;14.93;;;5.78;;
40669;SDS011;26355;45.528;9.234;2023-05-29T04:02:58;15.07;;;5.45;;
40669;SDS011;26355;45.528;9.234;2023-05-29T04:05:24;15.27;;;6.18;;
40669;SDS011;26355;45.528;9.234;2023-05-29T04:07:50;17.00;;;6.07;;
40669;SDS011;26355;45.528;9.234;2023-05-29T04:10:17;17.05;;;6.03;;
40669;SDS011;26355;45.528;9.234;2023-05-29T04:12:43;15.85;;;5.82;;
40669;SDS011;26355;45.528;9.234;2023-05-29T04:15:08;15.80;;;6.50;;
40669;SDS011;26355;45.528;9.234;2023-05-29T04:17:34;17.35;;;6.07;;
40669;SDS011;26355;45.528;9.234;2023-05-29T04:19:59;17.27;;;6.10;;
40669;SDS011;26355;45.528;9.234;2023-05-29T04:22:31;16.42;;;6.63;;
40669;SDS011;26355;45.528;9.234;2023-05-29T04:24:56;16.95;;;6.57;;
40669;SDS011;26355;45.528;9.234;2023-05-29T04:27:22;15.82;;;6.68;;
40669;SDS011;26355;45.528;9.234;2023-05-29T04:29:47;17.02;;;6.05;;
40669;SDS011;26355;45.528;9.234;2023-05-29T04:32:13;17.73;;;6.18;;
40669;SDS011;26355;45.528;9.234;2023-05-29T04:34:38;16.38;;;6.32;;
40669;SDS011;26355;45.528;9.234;2023-05-29T04:37:04;15.15;;;6.13;;
40669;SDS011;26355;45.528;9.234;2023-05-29T04:39:31;16.35;;;6.22;;
40669;SDS011;26355;45.528;9.234;2023-05-29T04:41:56;16.25;;;5.90;;
40669;SDS011;26355;45.528;9.234;2023-05-29T04:44:25;17.20;;;6.18;;
40669;SDS011;26355;45.528;9.234;2023-05-29T04:46:51;15.63;;;6.35;;
40669;SDS011;26355;45.528;9.234;2023-05-29T04:49:17;15.73;;;5.63;;
40669;SDS011;26355;45.528;9.234;2023-05-29T04:51:43;17.33;;;6.15;;
40669;SDS011;26355;45.528;9.234;2023-05-29T04:54:10;19.02;;;6.40;;
40669;SDS011;26355;45.528;9.234;2023-05-29T04:56:36;15.20;;;5.90;;
40669;SDS011;26355;45.528;9.234;2023-05-29T04:59:02;17.43;;;6.33;;
40669;SDS011;26355;45.528;9.234;2023-05-29T05:01:28;15.45;;;5.70;;
40669;SDS011;26355;45.528;9.234;2023-05-29T05:03:54;15.38;;;6.13;;
40669;SDS011;26355;45.528;9.234;2023-05-29T05:06:22;16.23;;;5.90;;
40669;SDS011;26355;45.528;9.234;2023-05-29T05:08:50;16.23;;;6.47;;
40669;SDS011;26355;45.528;9.234;2023-05-29T05:11:16;15.70;;;6.07;;
40669;SDS011;26355;45.528;9.234;2023-05-29T05:13:43;16.50;;;6.43;;
40669;SDS011;26355;45.528;9.234;2023-05-29T05:16:08;16.90;;;6.30;;
40669;SDS011;26355;45.528;9.234;2023-05-29T05:18:34;16.77;;;6.40;;
40669;SDS011;26355;45.528;9.234;2023-05-29T05:21:00;21.07;;;6.73;;
40669;SDS011;26355;45.528;9.234;2023-05-29T05:23:28;20.08;;;7.78;;
40669;SDS011;26355;45.528;9.234;2023-05-29T05:25:53;20.02;;;7.53;;
40669;SDS011;26355;45.528;9.234;2023-05-29T05:28:19;18.67;;;6.70;;
40669;SDS011;26355;45.528;9.234;2023-05-29T05:30:44;20.23;;;6.93;;
40669;SDS011;26355;45.528;9.234;2023-05-29T05:33:10;17.85;;;6.80;;
40669;SDS011;26355;45.528;9.234;2023-05-29T05:35:36;18.27;;;7.47;;
40669;SDS011;26355;45.528;9.234;2023-05-29T05:38:02;22.42;;;8.13;;
40669;SDS011;26355;45.528;9.234;2023-05-29T05:40:27;18.80;;;7.20;;
40669;SDS011;26355;45.528;9.234;2023-05-29T05:42:53;21.75;;;7.50;;
40669;SDS011;26355;45.528;9.234;2023-05-29T05:45:18;21.98;;;8.45;;
40669;SDS011;26355;45.528;9.234;2023-05-29T05:47:44;20.10;;;7.80;;
40669;SDS011;26355;45.528;9.234;2023-05-29T05:50:11;19.10;;;7.63;;
40669;SDS011;26355;45.528;9.234;2023-05-29T05:52:37;19.25;;;8.00;;
40669;SDS011;26355;45.528;9.234;2023-05-29T05:55:09;17.58;;;7.75;;
40669;SDS011;26355;45.528;9.234;2023-05-29T05:57:35;18.08;;;7.85;;
40669;SDS011;26355;45.528;9.234;2023-05-29T06:00:01;20.88;;;8.52;;
40669;SDS011;26355;45.528;9.234;2023-05-29T06:02:32;19.65;;;7.30;;
40669;SDS011;26355;45.528;9.234;2023-05-29T06:04:58;17.38;;;7.40;;
40669;SDS011;26355;45.528;9.234;2023-05-29T06:07:23;19.63;;;7.22;;
40669;SDS011;26355;45.528;9.234;2023-05-29T06:09:49;18.05;;;7.75;;
40669;SDS011;26355;45.528;9.234;2023-05-29T06:12:15;20.38;;;8.00;;
40669;SDS011;26355;45.528;9.234;2023-05-29T06:14:41;19.17;;;8.45;;
40669;SDS011;26355;45.528;9.234;2023-05-29T06:17:06;18.13;;;7.85;;
40669;SDS011;26355;45.528;9.234;2023-05-29T06:19:32;18.88;;;7.97;;
40669;SDS011;26355;45.528;9.234;2023-05-29T06:21:57;18.13;;;7.75;;
40669;SDS011;26355;45.528;9.234;2023-05-29T06:24:23;19.27;;;8.80;;
40669;SDS011;26355;45.528;9.234;2023-05-29T06:26:48;18.38;;;7.82;;
40669;SDS011;26355;45.528;9.234;2023-05-29T06:29:15;21.80;;;9.00;;
40669;SDS011;26355;45.528;9.234;2023-05-29T06:31:40;20.27;;;8.20;;
40669;SDS011;26355;45.528;9.234;2023-05-29T06:34:06;18.25;;;8.98;;
40669;SDS011;26355;45.528;9.234;2023-05-29T06:36:31;20.25;;;8.82;;
40669;SDS011;26355;45.528;9.234;2023-05-29T06:38:57;18.52;;;8.77;;
40669;SDS011;26355;45.528;9.234;2023-05-29T06:41:23;21.55;;;9.40;;
40669;SDS011;26355;45.528;9.234;2023-05-29T06:43:48;20.30;;;9.32;;
40669;SDS011;26355;45.528;9.234;2023-05-29T06:46:14;18.75;;;9.07;;
40669;SDS011;26355;45.528;9.234;2023-05-29T06:48:40;20.17;;;9.77;;
40669;SDS011;26355;45.528;9.234;2023-05-29T06:51:06;19.92;;;9.48;;
40669;SDS011;26355;45.528;9.234;2023-05-29T06:56:03;19.23;;;9.30;;
40669;SDS011;26355;45.528;9.234;2023-05-29T06:58:29;20.08;;;10.45;;
40669;SDS011;26355;45.528;9.234;2023-05-29T07:00:56;19.80;;;9.68;;
40669;SDS011;26355;45.528;9.234;2023-05-29T07:03:22;18.73;;;9.65;;
40669;SDS011;26355;45.528;9.234;2023-05-29T07:05:47;20.33;;;10.75;;
40669;SDS011;26355;45.528;9.234;2023-05-29T07:08:13;20.90;;;10.40;;
40669;SDS011;26355;45.528;9.234;2023-05-29T07:10:38;19.52;;;10.27;;
40669;SDS011;26355;45.528;9.234;2023-05-29T07:13:04;21.48;;;10.45;;
40669;SDS011;26355;45.528;9.234;2023-05-29T07:15:31;21.20;;;11.00;;
40669;SDS011;26355;45.528;9.234;2023-05-29T07:17:57;21.13;;;10.77;;
40669;SDS011;26355;45.528;9.234;2023-05-29T07:20:22;19.45;;;10.30;;
40669;SDS011;26355;45.528;9.234;2023-05-29T07:22:48;20.90;;;10.95;;
40669;SDS011;26355;45.528;9.234;2023-05-29T07:25:13;19.58;;;10.00;;
40669;SDS011;26355;45.528;9.234;2023-05-29T07:27:39;21.65;;;10.68;;
40669;SDS011;26355;45.528;9.234;2023-05-29T07:30:05;21.90;;;11.20;;
40669;SDS011;26355;45.528;9.234;2023-05-29T07:32:31;22.05;;;10.48;;
40669;SDS011;26355;45.528;9.234;2023-05-29T07:34:57;21.73;;;10.40;;
40669;SDS011;26355;45.528;9.234;2023-05-29T07:37:22;21.10;;;11.02;;
40669;SDS011;26355;45.528;9.234;2023-05-29T07:39:48;20.95;;;10.27;;
40669;SDS011;26355;45.528;9.234;2023-05-29T07:42:14;19.38;;;9.10;;
40669;SDS011;26355;45.528;9.234;2023-05-29T07:44:39;19.00;;;9.60;;
40669;SDS011;26355;45.528;9.234;2023-05-29T07:47:07;19.10;;;9.00;;
40669;SDS011;26355;45.528;9.234;2023-05-29T07:49:33;20.27;;;9.43;;
40669;SDS011;26355;45.528;9.234;2023-05-29T07:52:00;19.02;;;9.23;;
40669;SDS011;26355;45.528;9.234;2023-05-29T07:54:26;20.13;;;8.90;;
40669;SDS011;26355;45.528;9.234;2023-05-29T07:56:52;18.73;;;8.10;;
40669;SDS011;26355;45.528;9.234;2023-05-29T07:59:18;18.27;;;8.48;;
40669;SDS011;26355;45.528;9.234;2023-05-29T08:01:43;20.10;;;9.23;;
40669;SDS011;26355;45.528;9.234;2023-05-29T08:04:09;21.13;;;9.45;;
40669;SDS011;26355;45.528;9.234;2023-05-29T08:06:35;19.35;;;8.02;;
40669;SDS011;26355;45.528;9.234;2023-05-29T08:09:01;16.98;;;7.57;;
40669;SDS011;26355;45.528;9.234;2023-05-29T08:11:28;17.83;;;8.43;;
40669;SDS011;26355;45.528;9.234;2023-05-29T08:13:54;16.98;;;7.60;;
40669;SDS011;26355;45.528;9.234;2023-05-29T08:16:20;17.52;;;8.65;;
40669;SDS011;26355;45.528;9.234;2023-05-29T08:18:47;17.33;;;7.80;;
40669;SDS011;26355;45.528;9.234;2023-05-29T08:21:12;17.20;;;8.32;;
40669;SDS011;26355;45.528;9.234;2023-05-29T08:23:38;17.65;;;8.60;;
40669;SDS011;26355;45.528;9.234;2023-05-29T08:26:04;19.45;;;8.02;;
40669;SDS011;26355;45.528;9.234;2023-05-29T08:28:30;18.20;;;8.57;;
40669;SDS011;26355;45.528;9.234;2023-05-29T08:30:55;19.23;;;9.10;;
40669;SDS011;26355;45.528;9.234;2023-05-29T08:33:21;19.33;;;8.85;;
40669;SDS011;26355;45.528;9.234;2023-05-29T08:35:46;19.30;;;8.52;;
40669;SDS011;26355;45.528;9.234;2023-05-29T08:38:12;22.25;;;9.20;;
40669;SDS011;26355;45.528;9.234;2023-05-29T08:40:37;18.88;;;8.70;;
40669;SDS011;26355;45.528;9.234;2023-05-29T08:43:14;19.70;;;9.45;;
40669;SDS011;26355;45.528;9.234;2023-05-29T08:45:43;20.60;;;9.10;;
40669;SDS011;26355;45.528;9.234;2023-05-29T08:48:10;20.15;;;9.27;;
40669;SDS011;26355;45.528;9.234;2023-05-29T08:50:37;20.80;;;10.27;;
40669;SDS011;26355;45.528;9.234;2023-05-29T08:53:11;19.60;;;9.70;;
40669;SDS011;26355;45.528;9.234;2023-05-29T08:55:37;20.67;;;9.63;;
40669;SDS011;26355;45.528;9.234;2023-05-29T08:58:03;22.27;;;11.13;;
40669;SDS011;26355;45.528;9.234;2023-05-29T09:00:29;18.92;;;10.20;;
40669;SDS011;26355;45.528;9.234;2023-05-29T09:02:56;19.05;;;9.73;;
40669;SDS011;26355;45.528;9.234;2023-05-29T09:05:21;21.13;;;10.65;;
40669;SDS011;26355;45.528;9.234;2023-05-29T09:07:47;18.90;;;9.45;;
40669;SDS011;26355;45.528;9.234;2023-05-29T09:10:14;19.33;;;10.13;;
40669;SDS011;26355;45.528;9.234;2023-05-29T09:12:40;21.35;;;10.95;;
40669;SDS011;26355;45.528;9.234;2023-05-29T09:15:27;19.33;;;9.85;;
40669;SDS011;26355;45.528;9.234;2023-05-29T09:17:53;19.52;;;10.80;;
40669;SDS011;26355;45.528;9.234;2023-05-29T09:20:21;21.42;;;11.07;;
40669;SDS011;26355;45.528;9.234;2023-05-29T09:22:56;19.63;;;10.60;;
40669;SDS011;26355;45.528;9.234;2023-05-29T09:25:26;20.13;;;9.90;;
40669;SDS011;26355;45.528;9.234;2023-05-29T09:27:57;20.85;;;10.20;;
40669;SDS011;26355;45.528;9.234;2023-05-29T09:30:36;20.40;;;10.32;;
40669;SDS011;26355;45.528;9.234;2023-05-29T09:33:06;20.70;;;10.55;;
40669;SDS011;26355;45.528;9.234;2023-05-29T09:35:43;19.50;;;10.15;;
40669;SDS011;26355;45.528;9.234;2023-05-29T09:38:16;20.10;;;10.77;;
40669;SDS011;26355;45.528;9.234;2023-05-29T09:40:43;21.23;;;10.20;;
40669;SDS011;26355;45.528;9.234;2023-05-29T09:43:12;20.13;;;9.93;;
40669;SDS011;26355;45.528;9.234;2023-05-29T09:45:40;21.20;;;10.13;;
40669;SDS011;26355;45.528;9.234;2023-05-29T09:50:33;20.50;;;9.57;;
40669;SDS011;26355;45.528;9.234;2023-05-29T09:52:59;18.75;;;9.15;;
40669;SDS011;26355;45.528;9.234;2023-05-29T09:55:26;20.07;;;10.37;;
40669;SDS011;26355;45.528;9.234;2023-05-29T09:57:53;19.98;;;10.10;;
40669;SDS011;26355;45.528;9.234;2023-05-29T10:00:20;20.50;;;10.07;;
40669;SDS011;26355;45.528;9.234;2023-05-29T10:02:46;20.77;;;10.35;;
40669;SDS011;26355;45.528;9.234;2023-05-29T10:05:13;19.30;;;9.40;;
40669;SDS011;26355;45.528;9.234;2023-05-29T10:07:42;19.65;;;9.23;;
40669;SDS011;26355;45.528;9.234;2023-05-29T10:10:11;18.95;;;9.13;;
40669;SDS011;26355;45.528;9.234;2023-05-29T10:12:38;20.30;;;9.00;;
40669;SDS011;26355;45.528;9.234;2023-05-29T10:15:14;19.17;;;8.25;;
40669;SDS011;26355;45.528;9.234;2023-05-29T10:17:47;19.20;;;8.70;;
40669;SDS011;26355;45.528;9.234;2023-05-29T10:20:15;17.88;;;8.95;;
40669;SDS011;26355;45.528;9.234;2023-05-29T10:22:45;19.25;;;8.82;;
40669;SDS011;26355;45.528;9.234;2023-05-29T10:25:13;18.25;;;8.63;;
40669;SDS011;26355;45.528;9.234;2023-05-29T10:27:42;20.98;;;11.43;;
40669;SDS011;26355;45.528;9.234;2023-05-29T10:37:50;17.77;;;8.55;;
40669;SDS011;26355;45.528;9.234;2023-05-29T10:42:49;20.88;;;9.20;;
40669;SDS011;26355;45.528;9.234;2023-05-29T10:53:02;20.83;;;9.70;;
40669;SDS011;26355;45.528;9.234;2023-05-29T10:55:34;19.73;;;9.35;;
40669;SDS011;26355;45.528;9.234;2023-05-29T10:58:07;19.85;;;9.55;;
40669;SDS011;26355;45.528;9.234;2023-05-29T11:00:33;19.02;;;9.10;;
40669;SDS011;26355;45.528;9.234;2023-05-29T11:03:06;18.25;;;9.23;;
40669;SDS011;26355;45.528;9.234;2023-05-29T11:05:46;19.48;;;9.60;;
40669;SDS011;26355;45.528;9.234;2023-05-29T11:08:57;17.55;;;8.82;;
40669;SDS011;26355;45.528;9.234;2023-05-29T11:11:32;18.27;;;8.63;;
40669;SDS011;26355;45.528;9.234;2023-05-29T11:14:01;18.58;;;8.23;;
40669;SDS011;26355;45.528;9.234;2023-05-29T11:18:57;19.23;;;9.60;;
40669;SDS011;26355;45.528;9.234;2023-05-29T11:23:52;20.20;;;9.82;;
40669;SDS011;26355;45.528;9.234;2023-05-29T11:26:22;17.17;;;7.85;;
40669;SDS011;26355;45.528;9.234;2023-05-29T11:28:48;18.95;;;9.93;;
40669;SDS011;26355;45.528;9.234;2023-05-29T11:31:15;21.10;;;9.53;;
40669;SDS011;26355;45.528;9.234;2023-05-29T11:33:47;18.38;;;9.10;;
40669;SDS011;26355;45.528;9.234;2023-05-29T11:36:20;19.23;;;8.88;;
40669;SDS011;26355;45.528;9.234;2023-05-29T11:38:47;17.77;;;7.97;;
40669;SDS011;26355;45.528;9.234;2023-05-29T11:41:12;20.77;;;8.80;;
40669;SDS011;26355;45.528;9.234;2023-05-29T11:43:38;18.63;;;8.90;;
40669;SDS011;26355;45.528;9.234;2023-05-29T11:46:16;18.15;;;8.50;;
40669;SDS011;26355;45.528;9.234;2023-05-29T11:48:46;19.42;;;8.95;;
40669;SDS011;26355;45.528;9.234;2023-05-29T11:51:12;19.25;;;9.10;;
40669;SDS011;26355;45.528;9.234;2023-05-29T11:53:42;18.63;;;9.17;;
40669;SDS011;26355;45.528;9.234;2023-05-29T11:56:09;19.13;;;8.93;;
40669;SDS011;26355;45.528;9.234;2023-05-29T12:01:01;19.67;;;9.10;;
40669;SDS011;26355;45.528;9.234;2023-05-29T12:03:27;18.08;;;9.75;;
40669;SDS011;26355;45.528;9.234;2023-05-29T12:05:52;18.80;;;9.73;;
40669;SDS011;26355;45.528;9.234;2023-05-29T12:08:24;18.73;;;8.55;;
40669;SDS011;26355;45.528;9.234;2023-05-29T12:10:50;17.25;;;8.43;;
40669;SDS011;26355;45.528;9.234;2023-05-29T12:13:20;18.50;;;8.15;;
40669;SDS011;26355;45.528;9.234;2023-05-29T12:15:51;18.35;;;8.18;;
40669;SDS011;26355;45.528;9.234;2023-05-29T12:18:19;17.67;;;8.15;;
40669;SDS011;26355;45.528;9.234;2023-05-29T12:20:45;19.60;;;8.40;;
40669;SDS011;26355;45.528;9.234;2023-05-29T12:23:10;17.80;;;8.35;;
40669;SDS011;26355;45.528;9.234;2023-05-29T12:25:39;17.98;;;8.52;;
40669;SDS011;26355;45.528;9.234;2023-05-29T12:28:05;18.38;;;8.68;;
40669;SDS011;26355;45.528;9.234;2023-05-29T12:30:31;17.90;;;7.63;;
40669;SDS011;26355;45.528;9.234;2023-05-29T12:33:01;19.50;;;8.63;;
40669;SDS011;26355;45.528;9.234;2023-05-29T12:35:28;17.97;;;8.27;;
40669;SDS011;26355;45.528;9.234;2023-05-29T12:37:55;18.40;;;8.95;;
40669;SDS011;26355;45.528;9.234;2023-05-29T12:40:25;20.95;;;8.00;;
40669;SDS011;26355;45.528;9.234;2023-05-29T12:42:56;17.50;;;8.00;;
40669;SDS011;26355;45.528;9.234;2023-05-29T12:45:26;19.85;;;8.07;;
40669;SDS011;26355;45.528;9.234;2023-05-29T12:47:53;19.00;;;7.78;;
40669;SDS011;26355;45.528;9.234;2023-05-29T12:50:30;19.15;;;7.75;;
40669;SDS011;26355;45.528;9.234;2023-05-29T12:55:23;16.90;;;7.47;;
40669;SDS011;26355;45.528;9.234;2023-05-29T12:57:50;19.70;;;7.82;;
40669;SDS011;26355;45.528;9.234;2023-05-29T13:00:16;17.30;;;7.85;;
40669;SDS011;26355;45.528;9.234;2023-05-29T13:02:44;20.25;;;9.35;;
40669;SDS011;26355;45.528;9.234;2023-05-29T13:05:10;21.23;;;9.20;;
40669;SDS011;26355;45.528;9.234;2023-05-29T13:07:35;16.98;;;8.40;;
40669;SDS011;26355;45.528;9.234;2023-05-29T13:10:01;18.20;;;9.02;;
40669;SDS011;26355;45.528;9.234;2023-05-29T13:12:27;18.38;;;8.18;;
40669;SDS011;26355;45.528;9.234;2023-05-29T13:14:52;17.67;;;8.35;;
40669;SDS011;26355;45.528;9.234;2023-05-29T13:17:20;18.77;;;8.88;;
40669;SDS011;26355;45.528;9.234;2023-05-29T13:19:46;17.88;;;8.52;;
40669;SDS011;26355;45.528;9.234;2023-05-29T13:22:12;16.88;;;7.25;;
40669;SDS011;26355;45.528;9.234;2023-05-29T13:24:37;16.52;;;7.38;;
40669;SDS011;26355;45.528;9.234;2023-05-29T13:27:03;18.77;;;8.15;;
40669;SDS011;26355;45.528;9.234;2023-05-29T13:29:30;17.92;;;8.18;;
40669;SDS011;26355;45.528;9.234;2023-05-29T13:31:56;16.60;;;7.68;;
40669;SDS011;26355;45.528;9.234;2023-05-29T13:34:22;15.65;;;7.32;;
40669;SDS011;26355;45.528;9.234;2023-05-29T13:36:50;17.90;;;7.57;;
40669;SDS011;26355;45.528;9.234;2023-05-29T13:39:16;18.05;;;8.07;;
40669;SDS011;26355;45.528;9.234;2023-05-29T13:41:42;16.52;;;7.40;;
40669;SDS011;26355;45.528;9.234;2023-05-29T13:44:07;17.52;;;7.32;;
40669;SDS011;26355;45.528;9.234;2023-05-29T13:46:33;17.35;;;7.70;;
40669;SDS011;26355;45.528;9.234;2023-05-29T13:48:58;16.55;;;7.38;;
40669;SDS011;26355;45.528;9.234;2023-05-29T13:51:25;16.67;;;7.30;;
40669;SDS011;26355;45.528;9.234;2023-05-29T13:53:50;19.80;;;7.80;;
40669;SDS011;26355;45.528;9.234;2023-05-29T13:56:16;16.17;;;6.70;;
40669;SDS011;26355;45.528;9.234;2023-05-29T13:58:41;18.88;;;7.15;;
40669;SDS011;26355;45.528;9.234;2023-05-29T14:01:07;16.27;;;7.18;;
40669;SDS011;26355;45.528;9.234;2023-05-29T14:03:32;18.55;;;6.80;;
40669;SDS011;26355;45.528;9.234;2023-05-29T14:05:58;15.75;;;6.72;;
40669;SDS011;26355;45.528;9.234;2023-05-29T14:08:24;16.70;;;7.20;;
40669;SDS011;26355;45.528;9.234;2023-05-29T14:10:49;18.77;;;7.57;;
40669;SDS011;26355;45.528;9.234;2023-05-29T14:13:15;17.95;;;7.68;;
40669;SDS011;26355;45.528;9.234;2023-05-29T14:15:41;19.17;;;7.50;;
40669;SDS011;26355;45.528;9.234;2023-05-29T14:18:07;16.40;;;6.47;;
40669;SDS011;26355;45.528;9.234;2023-05-29T14:20:33;16.35;;;6.90;;
40669;SDS011;26355;45.528;9.234;2023-05-29T14:22:58;17.02;;;6.70;;
40669;SDS011;26355;45.528;9.234;2023-05-29T14:25:24;16.92;;;6.70;;
40669;SDS011;26355;45.528;9.234;2023-05-29T14:27:50;15.13;;;6.50;;
40669;SDS011;26355;45.528;9.234;2023-05-29T14:30:16;18.15;;;7.40;;
40669;SDS011;26355;45.528;9.234;2023-05-29T14:32:42;18.95;;;7.78;;
40669;SDS011;26355;45.528;9.234;2023-05-29T14:35:08;15.93;;;7.03;;
40669;SDS011;26355;45.528;9.234;2023-05-29T14:37:34;16.48;;;6.85;;
40669;SDS011;26355;45.528;9.234;2023-05-29T14:40:00;17.02;;;7.07;;
40669;SDS011;26355;45.528;9.234;2023-05-29T14:42:26;17.77;;;7.40;;
40669;SDS011;26355;45.528;9.234;2023-05-29T14:44:51;18.38;;;7.45;;
40669;SDS011;26355;45.528;9.234;2023-05-29T14:47:17;17.85;;;7.85;;
40669;SDS011;26355;45.528;9.234;2023-05-29T14:49:43;16.08;;;6.88;;
40669;SDS011;26355;45.528;9.234;2023-05-29T14:52:09;15.82;;;6.63;;
40669;SDS011;26355;45.528;9.234;2023-05-29T14:54:34;16.75;;;7.47;;
40669;SDS011;26355;45.528;9.234;2023-05-29T14:57:00;16.80;;;7.45;;
40669;SDS011;26355;45.528;9.234;2023-05-29T14:59:26;16.95;;;8.00;;
40669;SDS011;26355;45.528;9.234;2023-05-29T15:01:51;18.60;;;7.97;;
40669;SDS011;26355;45.528;9.234;2023-05-29T15:06:44;17.43;;;7.60;;
40669;SDS011;26355;45.528;9.234;2023-05-29T15:09:10;17.40;;;7.85;;
40669;SDS011;26355;45.528;9.234;2023-05-29T15:11:35;16.85;;;7.28;;